createdAt,value
2019-03-08T00:01:15.472Z,4.78
2019-03-08T00:03:45.857Z,1.25
2019-03-08T00:06:16.159Z,1.95
2019-03-08T00:08:46.738Z,3.58
2019-03-08T00:11:17.042Z,2.85
2019-03-08T00:13:47.404Z,1.37
2019-03-08T00:16:17.702Z,1.52
2019-03-08T00:18:48.084Z,3.37
2019-03-08T00:21:18.683Z,1.67
2019-03-08T00:23:49.113Z,2.87
2019-03-08T00:26:19.445Z,1.20
2019-03-08T00:28:49.794Z,3.62
2019-03-08T00:31:20.138Z,4.75
2019-03-08T00:33:50.500Z,1.30
2019-03-08T00:36:22.849Z,3.60
2019-03-08T00:38:53.194Z,2.55
2019-03-08T00:41:23.495Z,1.00
2019-03-08T00:43:53.856Z,1.75
2019-03-08T00:46:24.156Z,1.37
2019-03-08T00:48:54.501Z,1.20
2019-03-08T00:51:24.812Z,1.35
2019-03-08T00:53:55.150Z,1.30
2019-03-08T00:56:25.467Z,4.15
2019-03-08T00:58:55.823Z,2.80
2019-03-08T01:01:26.142Z,2.15
2019-03-08T01:03:56.482Z,3.05
2019-03-08T01:06:26.798Z,3.10
2019-03-08T01:08:57.199Z,3.10
2019-03-08T01:11:27.496Z,2.27
2019-03-08T01:13:58.052Z,2.27
2019-03-08T01:16:28.350Z,2.08
2019-03-08T01:18:58.669Z,2.83
2019-03-08T01:21:28.976Z,2.72
2019-03-08T01:23:59.326Z,2.42
2019-03-08T01:26:29.939Z,5.28
2019-03-08T01:29:00.408Z,2.33
2019-03-08T01:31:30.702Z,1.70
2019-03-08T01:34:01.090Z,2.40
2019-03-08T01:36:31.399Z,2.83
2019-03-08T01:39:02.156Z,3.02
2019-03-08T01:41:34.172Z,1.75
2019-03-08T01:44:04.549Z,1.17
2019-03-08T01:46:34.896Z,1.60
2019-03-08T01:49:05.320Z,2.60
2019-03-08T01:51:36.031Z,3.92
2019-03-08T01:54:06.359Z,1.82
2019-03-08T01:56:36.712Z,1.12
2019-03-08T01:59:08.560Z,1.92
2019-03-08T02:01:38.893Z,1.12
2019-03-08T02:04:09.592Z,2.33
2019-03-08T02:06:39.927Z,1.45
2019-03-08T02:09:10.398Z,1.95
2019-03-08T02:11:40.980Z,2.55
2019-03-08T02:14:11.364Z,2.47
2019-03-08T02:16:41.972Z,3.45
2019-03-08T02:19:12.335Z,1.50
2019-03-08T02:21:42.644Z,2.47
2019-03-08T02:24:13.042Z,1.10
2019-03-08T02:26:43.362Z,1.30
2019-03-08T02:29:13.723Z,1.30
2019-03-08T02:31:44.029Z,1.32
2019-03-08T02:34:14.424Z,5.08
2019-03-08T02:36:44.762Z,3.70
2019-03-08T02:39:15.204Z,3.25
2019-03-08T02:41:45.627Z,2.67
2019-03-08T02:44:15.916Z,3.87
2019-03-08T02:46:46.273Z,3.50
2019-03-08T02:49:16.598Z,2.67
2019-03-08T02:51:46.984Z,3.85
2019-03-08T02:54:17.285Z,1.67
2019-03-08T02:56:47.622Z,6.92
2019-03-08T02:59:17.985Z,2.83
2019-03-08T03:01:48.331Z,4.05
2019-03-08T03:04:18.670Z,2.62
2019-03-08T03:06:49.000Z,1.35
2019-03-08T03:09:19.403Z,3.80
2019-03-08T03:11:49.757Z,2.98
2019-03-08T03:14:20.047Z,3.08
2019-03-08T03:16:50.427Z,3.33
2019-03-08T03:19:20.740Z,2.55
2019-03-08T03:21:51.175Z,2.02
2019-03-08T03:24:21.497Z,1.45
2019-03-08T03:26:51.844Z,2.42
2019-03-08T03:29:22.160Z,1.47
2019-03-08T03:31:52.510Z,2.45
2019-03-08T03:34:23.262Z,1.20
2019-03-08T03:36:53.654Z,4.47
2019-03-08T03:39:24.026Z,1.60
2019-03-08T03:41:54.387Z,1.00
2019-03-08T03:44:24.692Z,1.20
2019-03-08T03:46:55.125Z,1.47
2019-03-08T03:49:25.434Z,1.55
2019-03-08T03:51:55.807Z,2.30
2019-03-08T03:54:26.146Z,2.37
2019-03-08T03:56:56.542Z,2.22
2019-03-08T03:59:26.870Z,4.00
2019-03-08T04:01:57.211Z,2.62
2019-03-08T04:04:27.515Z,2.70
2019-03-08T04:06:57.901Z,6.42
2019-03-08T04:09:28.318Z,2.17
2019-03-08T04:11:58.638Z,3.42
2019-03-08T04:14:28.981Z,7.33
2019-03-08T04:16:59.343Z,1.40
2019-03-08T04:19:29.633Z,2.95
2019-03-08T04:22:00.030Z,1.37
2019-03-08T04:24:30.472Z,2.92
2019-03-08T04:27:00.808Z,2.20
2019-03-08T04:29:31.136Z,1.70
2019-03-08T04:32:01.499Z,3.77
2019-03-08T04:34:31.823Z,3.72
2019-03-08T04:37:02.181Z,1.90
2019-03-08T04:39:32.686Z,2.00
2019-03-08T04:42:03.056Z,2.25
2019-03-08T04:44:33.712Z,1.60
2019-03-08T04:47:04.077Z,1.98
2019-03-08T04:49:34.394Z,1.95
2019-03-08T04:52:04.974Z,3.52
2019-03-08T04:54:35.294Z,4.37
2019-03-08T04:57:05.671Z,1.67
2019-03-08T04:59:36.033Z,3.30
2019-03-08T05:02:06.372Z,4.92
2019-03-08T05:04:36.678Z,4.65
2019-03-08T05:07:07.058Z,4.25
2019-03-08T05:09:37.362Z,1.90
2019-03-08T05:12:07.745Z,2.75
2019-03-08T05:14:38.059Z,1.75
2019-03-08T05:17:08.435Z,1.77
2019-03-08T05:19:38.767Z,1.62
2019-03-08T05:22:09.110Z,2.17
2019-03-08T05:24:39.427Z,1.25
2019-03-08T05:27:09.777Z,2.47
2019-03-08T05:29:40.074Z,1.30
2019-03-08T05:32:10.641Z,1.30
2019-03-08T05:35:00.032Z,4.12
2019-03-08T05:37:30.368Z,1.82
2019-03-08T05:40:00.730Z,2.17
2019-03-08T05:42:31.126Z,1.30
2019-03-08T05:45:01.414Z,2.62
2019-03-08T05:47:31.831Z,2.10
2019-03-08T05:50:03.118Z,1.77
2019-03-08T05:52:33.537Z,3.12
2019-03-08T05:55:04.291Z,2.22
2019-03-08T05:57:34.680Z,3.85
2019-03-08T06:00:05.831Z,1.40
2019-03-08T06:02:36.222Z,3.52
2019-03-08T06:05:06.969Z,6.03
2019-03-08T06:07:37.487Z,2.25
2019-03-08T06:10:29.146Z,2.70
2019-03-08T06:13:00.683Z,1.27
2019-03-08T06:15:31.043Z,2.98
2019-03-08T06:18:01.685Z,1.62
2019-03-08T06:20:31.990Z,2.30
2019-03-08T06:23:02.375Z,5.35
2019-03-08T06:25:32.742Z,1.25
2019-03-08T06:28:03.066Z,4.15
2019-03-08T06:30:33.628Z,1.45
2019-03-08T06:33:04.003Z,1.90
2019-03-08T06:35:34.340Z,3.83
2019-03-08T06:38:04.610Z,3.00
2019-03-08T06:40:34.961Z,2.27
2019-03-08T06:43:05.410Z,2.35
2019-03-08T06:45:35.755Z,4.47
2019-03-08T06:48:06.071Z,3.33
2019-03-08T06:50:36.421Z,2.05
2019-03-08T06:53:06.757Z,4.08
2019-03-08T16:04:38.380Z,9.95
2019-03-08T16:48:46.449Z,12.07
2019-03-08T17:33:03.423Z,34.45
2019-03-08T17:43:56.313Z,34.65
2019-03-08T18:34:16.888Z,38.75
2019-03-08T19:10:52.298Z,57.13
2019-03-08T19:18:54.463Z,68.07
2019-03-08T19:22:41.307Z,91.67
2019-03-08T19:25:24.374Z,96.92
2019-03-08T19:31:41.187Z,98.50
2019-03-08T19:35:21.311Z,87.78
2019-03-08T19:44:26.896Z,94.92
2019-03-08T19:46:31.673Z,83.90
2019-03-08T20:14:46.559Z,80.10
2019-03-08T22:56:13.277Z,34.65
2019-03-08T22:59:29.607Z,37.10
